createdAt,value
2018-03-18T00:01:57.869Z,18.70
2018-03-18T00:04:28.068Z,26.17
2018-03-18T00:06:58.234Z,15.07
2018-03-18T00:09:28.196Z,16.63
2018-03-18T00:11:58.117Z,15.77
2018-03-18T00:14:28.294Z,18.73
2018-03-18T00:16:58.247Z,23.30
2018-03-18T00:19:28.504Z,18.43
2018-03-18T00:21:58.858Z,20.73
2018-03-18T00:24:28.819Z,23.67
2018-03-18T00:26:58.824Z,23.87
2018-03-18T00:29:28.856Z,11.53
2018-03-18T00:31:59.077Z,18.50
2018-03-18T00:34:28.781Z,13.87
2018-03-18T00:36:58.582Z,18.20
2018-03-18T00:39:28.672Z,17.43
2018-03-18T00:41:58.421Z,13.37
2018-03-18T00:44:28.429Z,19.33
2018-03-18T00:46:58.796Z,12.33
2018-03-18T00:49:28.990Z,13.90
2018-03-18T00:52:01.869Z,12.13
2018-03-18T00:54:31.758Z,14.60
2018-03-18T00:57:01.814Z,14.90
2018-03-18T00:59:31.752Z,12.20
2018-03-18T01:02:01.790Z,11.93
2018-03-18T01:04:32.760Z,10.77
2018-03-18T01:07:03.023Z,10.57
2018-03-18T01:09:33.213Z,14.77
2018-03-18T01:12:03.574Z,15.27
2018-03-18T01:14:33.846Z,10.80
2018-03-18T01:17:03.163Z,14.10
2018-03-18T01:19:33.325Z,12.17
2018-03-18T01:22:03.724Z,17.43
2018-03-18T01:24:33.951Z,18.53
2018-03-18T01:27:04.070Z,16.10
2018-03-18T01:29:33.446Z,11.37
2018-03-18T01:32:03.286Z,17.37
2018-03-18T01:34:33.484Z,14.40
2018-03-18T01:37:03.514Z,14.83
2018-03-18T01:39:33.114Z,12.97
2018-03-18T01:42:04.176Z,17.27
2018-03-18T01:44:34.365Z,15.60
2018-03-18T01:47:03.791Z,13.50
2018-03-18T01:49:34.008Z,16.13
2018-03-18T01:52:04.547Z,13.80
2018-03-18T01:54:34.969Z,14.00
2018-03-18T01:57:04.475Z,18.93
2018-03-18T01:59:34.508Z,21.43
2018-03-18T02:02:04.934Z,16.53
2018-03-18T02:04:35.043Z,12.07
2018-03-18T02:07:05.052Z,19.90
2018-03-18T02:09:35.080Z,13.30
2018-03-18T02:12:05.393Z,17.17
2018-03-18T02:14:35.409Z,16.80
2018-03-18T02:17:05.425Z,19.23
2018-03-18T02:19:35.408Z,18.13
2018-03-18T02:22:05.258Z,25.87
2018-03-18T02:24:35.074Z,15.03
2018-03-18T02:27:05.578Z,20.83
2018-03-18T02:29:35.743Z,26.07
2018-03-18T02:32:05.925Z,27.40
2018-03-18T02:34:36.207Z,23.03
2018-03-18T02:37:06.181Z,23.37
2018-03-18T02:39:36.107Z,24.87
2018-03-18T02:42:06.125Z,26.27
2018-03-18T02:44:36.341Z,26.07
2018-03-18T02:47:05.965Z,27.77
2018-03-18T02:49:36.077Z,25.37
2018-03-18T02:52:05.959Z,23.53
2018-03-18T02:54:35.889Z,17.40
2018-03-18T02:57:05.708Z,24.43
2018-03-18T02:59:36.358Z,19.27
2018-03-18T03:02:05.648Z,26.00
2018-03-18T03:04:36.108Z,33.00
2018-03-18T03:07:06.360Z,27.63
2018-03-18T03:09:36.820Z,28.87
2018-03-18T03:12:06.640Z,31.93
2018-03-18T03:14:36.840Z,23.27
2018-03-18T03:17:06.050Z,27.57
2018-03-18T03:19:36.244Z,24.00
2018-03-18T03:22:06.381Z,28.77
2018-03-18T03:24:36.688Z,24.37
2018-03-18T03:27:06.838Z,16.57
2018-03-18T03:29:37.132Z,28.40
2018-03-18T03:32:07.178Z,21.20
2018-03-18T03:34:37.404Z,25.93
2018-03-18T03:37:07.865Z,25.80
2018-03-18T03:39:37.738Z,26.43
2018-03-18T03:42:08.063Z,32.97
2018-03-18T03:44:38.191Z,30.77
2018-03-18T03:47:08.121Z,30.27
2018-03-18T03:49:38.116Z,26.27
2018-03-18T03:52:08.263Z,27.43
2018-03-18T03:54:37.830Z,33.10
2018-03-18T03:57:07.647Z,24.53
2018-03-18T03:59:37.991Z,35.73
2018-03-18T04:02:08.711Z,40.20
2018-03-18T04:04:38.782Z,44.63
2018-03-18T04:07:08.653Z,42.40
2018-03-18T04:09:38.062Z,39.63
2018-03-18T04:12:07.873Z,52.23
2018-03-18T04:14:37.798Z,52.37
2018-03-18T04:17:07.966Z,49.77
2018-03-18T04:19:37.822Z,54.83
2018-03-18T04:22:07.011Z,53.67
2018-03-18T04:24:36.214Z,60.57
2018-03-18T04:27:06.238Z,66.33
2018-03-18T04:29:36.338Z,58.67
2018-03-18T04:32:06.255Z,69.77
2018-03-18T04:34:36.659Z,67.97
2018-03-18T04:37:05.787Z,69.67
2018-03-18T04:39:34.990Z,70.97
2018-03-18T04:42:04.185Z,66.17
2018-03-18T04:44:33.483Z,64.07
2018-03-18T04:47:03.519Z,76.17
2018-03-18T04:49:32.823Z,76.40
2018-03-18T04:52:02.021Z,68.33
2018-03-18T04:54:31.301Z,85.30
2018-03-18T04:57:00.499Z,83.50
2018-03-18T04:59:29.709Z,84.40
2018-03-18T05:01:58.899Z,89.70
2018-03-18T05:04:28.210Z,82.40
2018-03-18T05:06:57.398Z,71.57
2018-03-18T05:09:26.909Z,76.90
2018-03-18T05:11:56.197Z,77.37
2018-03-18T05:14:25.420Z,65.43
2018-03-18T05:16:55.556Z,87.40
2018-03-18T05:19:24.919Z,68.43
2018-03-18T05:21:54.136Z,63.23
2018-03-18T05:24:23.327Z,69.40
2018-03-18T05:26:52.615Z,81.83
2018-03-18T05:29:21.926Z,62.60
2018-03-18T05:31:51.324Z,57.63
2018-03-18T05:34:20.525Z,60.53
2018-03-18T05:36:49.780Z,74.57
2018-03-18T05:39:19.844Z,62.20
2018-03-18T05:41:49.046Z,69.87
2018-03-18T05:44:19.501Z,58.13
2018-03-18T05:46:48.628Z,63.73
2018-03-18T05:49:17.838Z,63.87
2018-03-18T05:51:47.174Z,48.97
2018-03-18T05:54:16.477Z,50.03
2018-03-18T05:56:45.658Z,73.80
2018-03-18T05:59:14.859Z,66.87
2018-03-18T06:01:44.163Z,67.97
2018-03-18T06:04:13.477Z,59.07
2018-03-18T06:06:42.664Z,67.63
2018-03-18T06:09:11.929Z,59.27
2018-03-18T06:11:41.162Z,75.80
2018-03-18T06:14:10.354Z,76.37
2018-03-18T06:16:39.556Z,75.43
2018-03-18T06:19:08.725Z,88.57
2018-03-18T06:21:37.946Z,80.60
2018-03-18T06:24:07.368Z,100.37
2018-03-18T06:26:36.972Z,76.43
2018-03-18T06:29:06.267Z,69.70
2018-03-18T06:31:35.599Z,98.43
2018-03-18T06:34:04.992Z,89.07
2018-03-18T06:36:34.168Z,75.10
2018-03-18T06:39:03.667Z,70.47
2018-03-18T06:41:32.967Z,83.73
2018-03-18T06:44:02.261Z,79.53
2018-03-18T06:46:31.482Z,80.40
2018-03-18T06:49:00.633Z,88.30
2018-03-18T06:51:30.798Z,83.53
2018-03-18T06:54:00.000Z,81.17
2018-03-18T06:56:29.179Z,81.60
2018-03-18T06:58:58.377Z,99.63
2018-03-18T07:01:27.559Z,82.70
2018-03-18T07:03:57.700Z,87.73
2018-03-18T07:06:26.818Z,93.37
2018-03-18T07:08:56.101Z,88.57
2018-03-18T07:11:25.410Z,74.77
2018-03-18T07:13:54.694Z,97.77
2018-03-18T07:16:23.891Z,96.27
2018-03-18T07:18:53.093Z,79.53
2018-03-18T07:21:22.509Z,82.70
2018-03-18T07:23:51.818Z,94.20
2018-03-18T07:26:21.806Z,68.03
2018-03-18T07:28:50.966Z,70.80
2018-03-18T07:31:20.212Z,63.87
2018-03-18T07:33:49.530Z,59.50
2018-03-18T07:36:18.716Z,55.63
2018-03-18T07:38:47.916Z,47.60
2018-03-18T07:41:17.344Z,42.70
2018-03-18T07:43:47.611Z,45.07
2018-03-18T07:46:16.833Z,48.30
2018-03-18T07:48:46.028Z,36.53
2018-03-18T07:51:15.249Z,40.63
2018-03-18T07:53:44.527Z,32.17
2018-03-18T07:56:13.780Z,27.93
2018-03-18T07:58:42.924Z,28.20
2018-03-18T08:01:12.112Z,20.67
2018-03-18T08:03:41.297Z,18.80
2018-03-18T08:06:10.518Z,20.23
2018-03-18T08:08:39.728Z,16.23
2018-03-18T08:17:57.084Z,22.07
2018-03-18T08:20:26.274Z,19.30
2018-03-18T08:22:55.454Z,19.30
2018-03-18T08:25:24.682Z,15.37
2018-03-18T08:27:53.883Z,11.87
2018-03-18T08:30:23.260Z,13.00
2018-03-18T08:32:52.590Z,12.93
2018-03-18T08:35:21.735Z,14.00
2018-03-18T08:37:50.940Z,18.77
2018-03-18T08:40:20.181Z,10.77
2018-03-18T08:42:49.294Z,15.43
2018-03-18T08:45:18.551Z,16.63
2018-03-18T08:47:48.505Z,15.03
2018-03-18T08:50:17.792Z,37.60
2018-03-18T08:52:46.982Z,32.13
2018-03-18T08:55:16.269Z,28.83
2018-03-18T08:57:45.419Z,14.07
2018-03-18T09:00:14.834Z,40.07
2018-03-18T09:02:44.105Z,54.67
2018-03-18T09:05:13.364Z,49.63
2018-03-18T09:07:42.591Z,76.53
2018-03-18T09:10:12.788Z,60.53
2018-03-18T09:12:41.968Z,68.90
2018-03-18T09:15:12.124Z,65.80
2018-03-18T09:20:05.379Z,53.83
2018-03-18T09:22:34.587Z,44.80
2018-03-18T09:25:03.906Z,57.30
2018-03-18T09:27:33.206Z,41.90
2018-03-18T09:30:02.522Z,47.90
2018-03-18T09:32:32.527Z,40.70
2018-03-18T09:35:01.822Z,47.60
2018-03-18T09:37:31.939Z,37.77
2018-03-18T09:40:01.243Z,37.50
2018-03-18T09:42:30.416Z,42.90
2018-03-18T09:45:00.020Z,50.53
2018-03-18T09:47:29.361Z,47.77
2018-03-18T09:49:58.647Z,62.30
2018-03-18T09:52:27.852Z,52.63
2018-03-18T09:54:57.028Z,53.10
2018-03-18T09:57:26.139Z,50.33
2018-03-18T09:59:55.441Z,41.60
2018-03-18T10:02:24.655Z,47.83
2018-03-18T10:04:53.941Z,63.27
2018-03-18T10:07:23.114Z,43.20
2018-03-18T10:09:52.353Z,42.63
2018-03-18T10:12:21.546Z,40.83
2018-03-18T10:14:50.729Z,31.93
2018-03-18T10:17:19.953Z,31.73
2018-03-18T10:19:49.138Z,26.37
2018-03-18T10:22:18.429Z,37.40
2018-03-18T10:24:48.143Z,25.57
2018-03-18T10:27:18.386Z,30.17
2018-03-18T10:29:47.541Z,28.17
2018-03-18T10:32:27.363Z,25.10
2018-03-18T10:34:56.816Z,22.67
2018-03-18T10:37:26.021Z,25.30
2018-03-18T10:39:56.182Z,26.87
2018-03-18T10:42:25.547Z,28.07
2018-03-18T10:44:56.372Z,22.83
2018-03-18T10:47:25.770Z,25.20
2018-03-18T10:49:55.045Z,26.23
2018-03-18T10:52:24.580Z,19.77
2018-03-18T10:54:53.791Z,22.33
2018-03-18T10:57:22.982Z,13.50
2018-03-18T10:59:52.181Z,42.40
2018-03-18T11:02:22.290Z,35.83
2018-03-18T11:04:51.811Z,11.37
2018-03-18T11:07:21.113Z,6.67
2018-03-18T11:09:50.309Z,11.43
2018-03-18T11:12:19.500Z,9.00
2018-03-18T11:14:48.677Z,9.87
2018-03-18T11:17:18.006Z,6.60
2018-03-18T11:19:47.172Z,9.97
2018-03-18T11:22:16.491Z,14.00
2018-03-18T11:24:45.692Z,12.23
2018-03-18T11:27:15.377Z,5.63
2018-03-18T11:29:44.603Z,6.53
2018-03-18T11:32:14.142Z,10.60
2018-03-18T11:34:43.631Z,5.20
2018-03-18T11:37:12.916Z,6.57
2018-03-18T11:39:42.222Z,11.47
2018-03-18T11:42:11.520Z,10.23
2018-03-18T11:44:40.663Z,11.80
2018-03-18T11:47:09.805Z,10.17
2018-03-18T11:49:39.016Z,8.70
2018-03-18T11:52:09.026Z,8.40
2018-03-18T11:54:38.225Z,6.37
2018-03-18T11:57:07.444Z,13.33
2018-03-18T11:59:36.618Z,20.30
2018-03-18T12:02:05.896Z,21.30
2018-03-18T12:04:35.138Z,30.70
2018-03-18T12:07:11.711Z,33.63
2018-03-18T12:09:41.197Z,37.53
2018-03-18T12:12:10.428Z,41.97
2018-03-18T12:14:40.617Z,41.97
2018-03-18T12:17:09.768Z,40.80
2018-03-18T12:19:39.021Z,33.40
2018-03-18T12:22:08.420Z,29.77
2018-03-18T12:24:37.567Z,33.10
2018-03-18T12:27:07.583Z,25.23
2018-03-18T12:29:36.837Z,27.27
2018-03-18T12:32:06.130Z,14.37
2018-03-18T12:34:35.435Z,5.57
2018-03-18T12:37:04.624Z,8.20
2018-03-18T12:39:39.586Z,8.70
2018-03-18T12:42:08.849Z,7.67
2018-03-18T12:44:38.076Z,9.30
2018-03-18T12:47:08.041Z,7.67
2018-03-18T12:49:37.284Z,8.10
2018-03-18T12:52:07.577Z,10.87
2018-03-18T12:54:36.844Z,12.80
2018-03-18T12:57:06.003Z,10.33
2018-03-18T12:59:35.202Z,10.53
2018-03-18T13:02:04.510Z,11.43
2018-03-18T13:04:33.804Z,12.33
2018-03-18T13:07:03.005Z,8.60
2018-03-18T13:09:32.357Z,8.20
2018-03-18T13:12:01.603Z,12.13
2018-03-18T13:14:30.810Z,13.73
2018-03-18T13:16:59.988Z,7.77
2018-03-18T13:19:29.187Z,12.83
2018-03-18T13:21:58.497Z,10.43
2018-03-18T13:24:27.773Z,14.33
2018-03-18T13:26:56.995Z,11.73
2018-03-18T13:29:26.199Z,10.13
2018-03-18T13:31:55.468Z,11.40
2018-03-18T13:34:24.788Z,10.47
2018-03-18T13:36:54.047Z,8.70
2018-03-18T13:39:23.190Z,12.80
2018-03-18T13:41:52.370Z,13.37
2018-03-18T13:44:21.534Z,14.07
2018-03-18T13:46:50.876Z,8.77
2018-03-18T13:49:20.072Z,17.07
2018-03-18T13:51:49.459Z,11.30
2018-03-18T13:54:18.881Z,13.10
2018-03-18T13:56:48.183Z,11.13
2018-03-18T13:59:17.391Z,15.73
2018-03-18T14:01:47.302Z,7.63
2018-03-18T14:04:16.846Z,9.27
2018-03-18T14:06:45.970Z,12.77
2018-03-18T14:09:15.221Z,10.67
2018-03-18T14:11:44.505Z,10.57
2018-03-18T14:14:13.796Z,8.90
2018-03-18T14:16:42.992Z,7.17
2018-03-18T14:19:12.299Z,7.30
2018-03-18T14:21:41.457Z,8.57
2018-03-18T14:24:10.608Z,13.87
2018-03-18T14:26:39.739Z,9.83
2018-03-18T14:29:08.884Z,8.57
2018-03-18T14:31:38.226Z,8.13
2018-03-18T14:34:07.352Z,10.23
2018-03-18T14:36:36.495Z,9.50
2018-03-18T14:39:05.926Z,8.33
2018-03-18T14:41:35.087Z,12.10
2018-03-18T14:44:04.498Z,12.30
2018-03-18T14:46:33.663Z,9.33
2018-03-18T14:49:02.866Z,8.57
2018-03-18T14:51:32.064Z,11.30
2018-03-18T14:54:01.278Z,13.43
2018-03-18T14:56:30.441Z,14.63
2018-03-18T14:58:59.666Z,10.10
2018-03-18T15:01:28.920Z,12.40
2018-03-18T15:03:58.189Z,12.50
2018-03-18T15:06:27.364Z,11.23
2018-03-18T15:08:56.600Z,14.03
2018-03-18T15:11:25.896Z,8.77
2018-03-18T15:13:55.192Z,9.37
2018-03-18T15:16:24.378Z,14.20
2018-03-18T15:18:53.567Z,12.87
2018-03-18T15:21:22.741Z,11.37
2018-03-18T15:23:51.958Z,10.50
2018-03-18T15:26:21.169Z,15.27
2018-03-18T15:28:50.470Z,9.83
2018-03-18T15:31:19.893Z,18.60
2018-03-18T15:33:49.031Z,15.43
2018-03-18T15:36:18.173Z,9.87
2018-03-18T15:38:47.364Z,12.93
2018-03-18T15:41:16.658Z,14.13
2018-03-18T15:43:45.822Z,12.10
2018-03-18T15:46:15.259Z,12.30
2018-03-18T15:48:46.011Z,11.77
2018-03-18T15:51:15.304Z,12.43
2018-03-18T15:53:44.574Z,15.70
2018-03-18T15:56:13.807Z,14.47
2018-03-18T15:58:42.992Z,16.47
2018-03-18T16:01:12.193Z,21.87
2018-03-18T16:03:41.498Z,17.57
2018-03-18T16:06:10.704Z,21.13
2018-03-18T16:08:39.897Z,20.57
2018-03-18T16:11:09.047Z,25.43
2018-03-18T16:13:38.498Z,23.83
2018-03-18T16:16:07.664Z,16.27
2018-03-18T16:18:36.892Z,23.03
2018-03-18T16:21:06.093Z,15.43
2018-03-18T16:23:35.285Z,14.63
2018-03-18T16:26:04.585Z,16.83
2018-03-18T16:28:33.690Z,15.40
2018-03-18T16:31:13.039Z,15.80
2018-03-18T16:33:42.222Z,16.03
2018-03-18T16:36:11.418Z,14.73
2018-03-18T16:38:40.613Z,21.03
2018-03-18T16:41:09.727Z,16.00
2018-03-18T16:43:38.859Z,15.67
2018-03-18T16:46:08.025Z,16.77
2018-03-18T16:48:37.300Z,13.93
2018-03-18T16:51:06.617Z,15.17
2018-03-18T16:53:37.011Z,15.13
2018-03-18T16:56:06.242Z,18.60
2018-03-18T16:58:35.427Z,19.20
2018-03-18T17:01:04.727Z,20.97
2018-03-18T17:03:33.886Z,14.87
2018-03-18T17:06:03.123Z,18.37
2018-03-18T17:08:32.325Z,15.67
2018-03-18T17:11:02.552Z,15.50
2018-03-18T17:13:31.756Z,18.87
2018-03-18T17:16:00.944Z,20.00
2018-03-18T17:18:30.040Z,20.90
2018-03-18T17:20:59.237Z,18.93
2018-03-18T17:23:28.543Z,20.67
2018-03-18T17:25:57.734Z,17.43
2018-03-18T17:28:26.932Z,20.43
2018-03-18T17:30:56.162Z,13.70
2018-03-18T17:33:26.036Z,21.30
2018-03-18T17:35:55.249Z,21.43
2018-03-18T17:38:24.415Z,19.63
2018-03-18T17:40:53.659Z,25.30
2018-03-18T17:43:22.843Z,24.43
2018-03-18T17:45:58.421Z,21.73
2018-03-18T17:48:33.945Z,17.80
2018-03-18T17:51:09.350Z,16.53
2018-03-18T17:53:44.620Z,18.47
2018-03-18T17:56:19.668Z,14.70
2018-03-18T17:58:48.863Z,21.93
2018-03-18T18:01:19.165Z,19.90
2018-03-18T18:03:48.483Z,17.83
2018-03-18T18:06:17.979Z,18.13
2018-03-18T18:08:47.181Z,22.27
2018-03-18T18:11:16.593Z,16.80
2018-03-18T18:13:45.891Z,17.50
2018-03-18T18:16:15.081Z,19.93
2018-03-18T18:18:44.283Z,20.13
2018-03-18T18:21:13.491Z,18.03
2018-03-18T18:23:42.676Z,17.53
2018-03-18T18:26:11.892Z,13.80
2018-03-18T18:28:41.080Z,12.43
2018-03-18T18:31:10.387Z,14.93
2018-03-18T18:33:39.639Z,13.73
2018-03-18T18:36:09.347Z,19.73
2018-03-18T18:38:38.556Z,28.60
2018-03-18T18:41:07.782Z,18.37
2018-03-18T18:43:37.286Z,17.40
2018-03-18T18:46:06.585Z,23.60
2018-03-18T18:48:35.888Z,29.40
2018-03-18T18:51:05.193Z,25.27
2018-03-18T18:53:34.408Z,24.87
2018-03-18T18:56:03.584Z,28.67
2018-03-18T18:58:32.781Z,24.43
2018-03-18T19:01:02.097Z,28.07
2018-03-18T19:03:31.516Z,24.07
2018-03-18T19:06:00.795Z,24.50
2018-03-18T19:08:30.273Z,21.87
2018-03-18T19:10:59.503Z,26.07
2018-03-18T19:13:28.693Z,28.23
2018-03-18T19:15:57.993Z,30.53
2018-03-18T19:18:27.187Z,20.70
2018-03-18T19:20:56.766Z,26.40
2018-03-18T19:23:25.991Z,19.53
2018-03-18T19:25:55.203Z,24.97
2018-03-18T19:28:24.494Z,20.37
2018-03-18T19:30:53.757Z,20.07
2018-03-18T19:33:22.901Z,20.53
2018-03-18T19:35:52.092Z,22.20
2018-03-18T19:38:21.607Z,26.87
2018-03-18T19:40:50.797Z,33.53
2018-03-18T19:43:20.094Z,32.97
2018-03-18T19:45:49.291Z,38.27
2018-03-18T19:48:18.469Z,42.87
2018-03-18T19:50:47.699Z,47.27
2018-03-18T19:53:16.988Z,49.00
2018-03-18T19:55:46.073Z,48.27
2018-03-18T19:58:15.280Z,53.00
2018-03-18T20:00:44.379Z,50.53
2018-03-18T20:03:13.576Z,49.97
2018-03-18T20:05:42.874Z,50.23
2018-03-18T20:08:12.078Z,48.37
2018-03-18T20:10:41.282Z,43.43
2018-03-18T20:13:10.674Z,32.60
2018-03-18T20:15:39.869Z,26.07
2018-03-18T20:18:09.076Z,15.10
2018-03-18T20:20:38.382Z,14.37
2018-03-18T20:23:07.674Z,10.47
2018-03-18T20:25:37.181Z,7.23
2018-03-18T20:28:06.386Z,6.80
2018-03-18T20:30:35.567Z,12.30
2018-03-18T20:33:04.790Z,6.00
2018-03-18T20:35:34.586Z,8.33
2018-03-18T20:38:03.785Z,5.33
2018-03-18T20:40:33.397Z,6.17
2018-03-18T20:43:02.565Z,3.90
2018-03-18T20:45:31.894Z,5.47
2018-03-18T20:48:01.164Z,5.83
2018-03-18T20:50:30.404Z,6.70
2018-03-18T20:52:59.673Z,6.03
2018-03-18T20:55:28.899Z,4.70
2018-03-18T20:57:58.083Z,4.70
2018-03-18T21:00:27.289Z,5.20
2018-03-18T21:02:56.417Z,5.73
2018-03-18T21:05:25.533Z,6.27
2018-03-18T21:07:54.785Z,4.93
2018-03-18T21:10:24.083Z,4.07
2018-03-18T21:12:53.278Z,3.60
2018-03-18T21:15:22.461Z,5.63
2018-03-18T21:17:51.667Z,3.27
2018-03-18T21:20:20.865Z,3.73
2018-03-18T21:22:50.174Z,3.93
2018-03-18T21:25:19.574Z,3.87
2018-03-18T21:27:49.390Z,5.50
2018-03-18T21:30:18.591Z,5.20
2018-03-18T21:32:47.750Z,4.00
2018-03-18T21:35:16.989Z,4.77
2018-03-18T21:37:46.278Z,5.23
2018-03-18T21:40:15.465Z,6.20
2018-03-18T21:42:44.674Z,4.67
2018-03-18T21:45:14.707Z,5.67
2018-03-18T21:47:43.965Z,5.47
2018-03-18T21:50:13.279Z,5.70
2018-03-18T21:52:42.460Z,5.90
2018-03-18T21:55:11.700Z,7.40
2018-03-18T21:57:40.895Z,7.33
2018-03-18T22:00:10.112Z,7.03
2018-03-18T22:02:39.246Z,7.47
2018-03-18T22:05:09.613Z,7.57
2018-03-18T22:07:39.440Z,5.20
2018-03-18T22:10:09.328Z,5.43
2018-03-18T22:12:39.373Z,6.33
2018-03-18T22:15:08.564Z,5.93
2018-03-18T22:17:39.263Z,4.80
2018-03-18T22:20:09.072Z,6.97
2018-03-18T22:22:39.229Z,6.27
2018-03-18T22:25:09.338Z,4.73
2018-03-18T22:27:39.157Z,5.27
2018-03-18T22:30:09.067Z,5.73
2018-03-18T22:32:39.211Z,5.13
2018-03-18T22:35:08.507Z,6.10
2018-03-18T22:37:38.627Z,7.80
2018-03-18T22:40:08.732Z,6.17
2018-03-18T22:42:38.044Z,5.13
2018-03-18T22:45:08.367Z,5.07
2018-03-18T22:47:38.398Z,6.60
2018-03-18T22:50:08.592Z,5.20
2018-03-18T22:52:38.529Z,4.93
2018-03-18T22:55:08.856Z,4.70
2018-03-18T22:57:38.950Z,5.00
2018-03-18T23:00:08.871Z,4.93
2018-03-18T23:02:39.099Z,4.67
2018-03-18T23:05:08.729Z,4.53
2018-03-18T23:07:38.395Z,4.63
2018-03-18T23:10:08.948Z,4.27
2018-03-18T23:12:39.270Z,5.77
2018-03-18T23:15:09.667Z,4.90
2018-03-18T23:17:40.493Z,5.63
2018-03-18T23:20:10.354Z,4.67
2018-03-18T23:22:40.374Z,4.60
2018-03-18T23:25:10.683Z,7.23
2018-03-18T23:27:41.028Z,5.73
2018-03-18T23:30:10.491Z,5.80
2018-03-18T23:32:40.691Z,5.20
2018-03-18T23:35:10.753Z,6.30
2018-03-18T23:37:40.871Z,7.03
2018-03-18T23:40:11.140Z,7.73
2018-03-18T23:42:41.234Z,6.17
2018-03-18T23:45:11.238Z,6.10
2018-03-18T23:47:41.964Z,6.07
2018-03-18T23:50:12.130Z,6.50
2018-03-18T23:52:42.099Z,5.87
2018-03-18T23:55:12.116Z,5.83
2018-03-18T23:57:42.192Z,5.90
